Time;durP1;ratioP1;P1;durP2;ratioP2;P2;SDS_P1;SDS_P2;PMS_P1;PMS_P2;Temp;Humidity;BMP_temperature;BMP_pressure;BME280_temperature;BME280_humidity;BME280_pressure;Samples;Min_cycle;Max_cycle;Signal;HPM_P1;HPM_P2
2022/01/05 00:01:00;;;;;;;0.30;0.30;;;7.30;99.90;;;;;;5067696;28;20211;-62
2022/01/05 00:03:27;;;;;;;0.30;0.30;;;7.20;99.90;;;;;;5067296;28;20225;-62
2022/01/05 00:05:54;;;;;;;0.30;0.30;;;7.30;99.90;;;;;;5068173;28;20298;-61
2022/01/05 00:08:24;;;;;;;0.30;0.30;;;7.20;99.90;;;;;;5066769;28;20246;-61
2022/01/05 00:10:52;;;;;;;0.30;0.30;;;7.20;99.90;;;;;;5066952;28;20203;-62
2022/01/05 00:13:19;;;;;;;0.10;0.10;;;7.20;99.90;;;;;;5068575;28;20221;-61
2022/01/05 00:15:47;;;;;;;0.30;0.30;;;7.20;99.90;;;;;;5068123;28;20207;-62
2022/01/05 00:18:14;;;;;;;0.20;0.20;;;7.30;99.90;;;;;;5070360;28;20282;-62
2022/01/05 00:20:41;;;;;;;0.20;0.20;;;7.30;99.90;;;;;;5074382;28;20781;-60
2022/01/05 00:23:08;;;;;;;0.20;0.20;;;7.40;99.90;;;;;;5069804;28;20686;-62
2022/01/05 00:25:35;;;;;;;0.20;0.20;;;7.40;99.90;;;;;;5069636;28;20199;-64
2022/01/05 00:28:02;;;;;;;0.40;0.40;;;7.40;99.90;;;;;;5069258;28;20229;-62
2022/01/05 00:30:29;;;;;;;0.30;0.30;;;7.40;99.90;;;;;;5069077;28;20268;-63
2022/01/05 00:32:57;;;;;;;0.33;0.33;;;7.40;99.90;;;;;;5068978;28;20660;-62
2022/01/05 00:35:25;;;;;;;0.50;0.50;;;7.50;99.90;;;;;;5069711;28;20230;-62
2022/01/05 00:37:52;;;;;;;0.60;0.60;;;7.60;99.90;;;;;;5070183;28;20310;-62
2022/01/05 00:40:19;;;;;;;0.40;0.40;;;7.60;99.90;;;;;;5069760;28;20341;-62
2022/01/05 00:42:46;;;;;;;0.50;0.50;;;7.60;99.90;;;;;;5076828;28;20667;-62
2022/01/05 00:45:13;;;;;;;0.40;0.40;;;7.60;99.90;;;;;;5077814;28;20199;-62
2022/01/05 00:47:41;;;;;;;0.30;0.30;;;7.60;99.90;;;;;;5077356;28;20209;-61
2022/01/05 00:50:09;;;;;;;0.30;0.30;;;7.70;99.90;;;;;;5078722;28;20749;-61
2022/01/05 00:52:36;;;;;;;0.20;0.20;;;7.70;99.90;;;;;;5074766;28;20222;-62
2022/01/05 00:55:04;;;;;;;0.30;0.30;;;7.70;99.90;;;;;;5074819;28;20206;-60
2022/01/05 00:57:31;;;;;;;0.20;0.20;;;7.70;99.90;;;;;;5074996;28;20199;-61
2022/01/05 00:59:58;;;;;;;0.20;0.20;;;7.70;99.90;;;;;;5074351;28;20604;-62
2022/01/05 01:02:25;;;;;;;0.30;0.30;;;7.80;99.90;;;;;;5072502;28;20924;-61
2022/01/05 01:04:52;;;;;;;0.30;0.30;;;7.80;99.90;;;;;;5073032;28;20241;-61
2022/01/05 01:07:20;;;;;;;0.40;0.40;;;7.80;99.90;;;;;;5073171;28;20226;-61
2022/01/05 01:09:47;;;;;;;0.20;0.20;;;7.80;99.90;;;;;;5081144;28;20245;-62
2022/01/05 01:12:14;;;;;;;0.20;0.20;;;7.90;99.90;;;;;;5084860;28;20223;-62
2022/01/05 01:14:41;;;;;;;0.30;0.30;;;7.90;99.90;;;;;;5086328;28;20249;-62
2022/01/05 01:17:08;;;;;;;0.27;0.27;;;7.90;99.90;;;;;;5087010;28;20213;-61
2022/01/05 01:19:35;;;;;;;0.23;0.23;;;7.90;99.90;;;;;;5082502;28;20261;-64
2022/01/05 01:22:02;;;;;;;0.20;0.20;;;7.90;99.90;;;;;;5075474;28;20306;-62
2022/01/05 01:24:30;;;;;;;0.23;0.23;;;8.00;99.90;;;;;;5076661;28;20234;-62
2022/01/05 01:26:57;;;;;;;0.27;0.27;;;8.10;99.90;;;;;;5075824;28;20211;-62
2022/01/05 01:29:24;;;;;;;0.23;0.23;;;8.10;99.90;;;;;;5075329;28;20666;-62
2022/01/05 01:31:50;;;;;;;0.30;0.30;;;8.10;99.90;;;;;;5074693;28;20238;-63
2022/01/05 01:34:17;;;;;;;0.10;0.10;;;8.10;99.90;;;;;;5074868;28;20210;-63
2022/01/05 01:36:44;;;;;;;0.30;0.30;;;8.10;99.90;;;;;;5074666;28;20213;-62
2022/01/05 01:39:11;;;;;;;0.20;0.20;;;8.10;99.90;;;;;;5073107;28;20754;-62
2022/01/05 01:41:39;;;;;;;0.40;0.40;;;8.20;99.90;;;;;;5074082;28;20222;-62
2022/01/05 01:44:07;;;;;;;0.20;0.20;;;8.20;99.90;;;;;;5074550;28;20974;-62
2022/01/05 01:46:34;;;;;;;0.23;0.23;;;8.20;99.90;;;;;;5074707;28;20235;-62
2022/01/05 01:49:01;;;;;;;0.23;0.23;;;8.20;99.90;;;;;;5074376;28;20310;-62
2022/01/05 01:51:28;;;;;;;0.20;0.20;;;8.20;99.90;;;;;;5073635;28;20675;-62
2022/01/05 01:53:55;;;;;;;0.20;0.20;;;8.20;99.90;;;;;;5074463;28;20299;-62
2022/01/05 01:56:25;;;;;;;0.20;0.20;;;8.30;99.90;;;;;;5073743;28;20293;-61
2022/01/05 01:58:54;;;;;;;0.20;0.20;;;8.30;99.90;;;;;;5074396;28;20367;-61
2022/01/05 02:01:20;;;;;;;0.23;0.23;;;8.40;99.90;;;;;;5073964;28;20203;-62
2022/01/05 02:03:47;;;;;;;0.30;0.30;;;8.40;99.90;;;;;;5073193;28;20293;-62
2022/01/05 02:06:14;;;;;;;0.30;0.30;;;8.50;99.90;;;;;;5073625;28;20290;-62
2022/01/05 02:08:41;;;;;;;0.23;0.23;;;8.40;99.90;;;;;;5073551;28;20642;-63
2022/01/05 02:11:10;;;;;;;0.30;0.30;;;8.40;99.90;;;;;;5073385;28;20199;-62
2022/01/05 02:13:37;;;;;;;0.40;0.40;;;8.40;99.90;;;;;;5073944;28;20303;-62
2022/01/05 02:16:06;;;;;;;0.20;0.20;;;8.40;99.90;;;;;;5074584;28;20689;-62
2022/01/05 02:21:19;;;;;;;0.30;0.30;;;8.30;99.90;;;;;;5073493;28;20259;-62
2022/01/05 02:23:46;;;;;;;0.40;0.40;;;8.20;99.90;;;;;;5072408;28;20256;-62
2022/01/05 02:26:13;;;;;;;0.30;0.30;;;8.20;99.90;;;;;;5073349;28;20196;-62
2022/01/05 02:28:41;;;;;;;0.20;0.20;;;8.20;99.90;;;;;;5073703;28;20318;-62
2022/01/05 02:31:08;;;;;;;0.20;0.20;;;8.30;99.90;;;;;;5073481;28;20203;-61
2022/01/05 02:33:35;;;;;;;0.20;0.20;;;8.20;99.90;;;;;;5074262;28;20710;-62
2022/01/05 02:36:03;;;;;;;0.20;0.20;;;8.20;99.90;;;;;;5073736;28;20298;-62
2022/01/05 02:38:32;;;;;;;0.40;0.33;;;8.20;99.90;;;;;;5073986;28;20294;-63
2022/01/05 02:41:06;;;;;;;0.30;0.30;;;8.20;99.90;;;;;;5074157;28;20254;-62
2022/01/05 02:43:32;;;;;;;0.40;0.40;;;8.20;99.90;;;;;;5073604;28;20238;-61
2022/01/05 02:45:59;;;;;;;0.30;0.30;;;8.20;99.90;;;;;;5073779;28;20210;-62
2022/01/05 02:48:26;;;;;;;0.30;0.30;;;8.20;99.90;;;;;;5073747;28;20298;-62
2022/01/05 02:50:57;;;;;;;0.23;0.23;;;8.20;99.90;;;;;;5074137;28;20242;-61
2022/01/05 02:53:24;;;;;;;0.40;0.40;;;8.30;99.90;;;;;;5074278;28;20210;-61
2022/01/05 02:55:53;;;;;;;0.38;0.38;;;8.20;99.90;;;;;;5074152;28;20205;-63
2022/01/05 02:58:20;;;;;;;0.30;0.30;;;8.20;99.90;;;;;;5077469;28;20207;-61
2022/01/05 03:00:47;;;;;;;0.43;0.43;;;8.30;99.90;;;;;;5080664;28;20227;-66
2022/01/05 03:03:14;;;;;;;0.40;0.40;;;8.30;99.90;;;;;;5079933;28;20203;-62
2022/01/05 03:05:41;;;;;;;0.40;0.40;;;8.20;99.90;;;;;;5078421;28;20234;-62
2022/01/05 03:08:08;;;;;;;0.50;0.50;;;8.20;99.90;;;;;;5077624;28;20242;-61
2022/01/05 03:10:35;;;;;;;0.30;0.30;;;8.20;99.90;;;;;;5077678;28;20243;-61
2022/01/05 03:13:03;;;;;;;0.40;0.40;;;8.20;99.90;;;;;;5084151;28;20242;-61
2022/01/05 03:15:30;;;;;;;0.30;0.30;;;8.20;99.90;;;;;;5082175;28;20204;-62
2022/01/05 03:17:57;;;;;;;0.20;0.20;;;8.20;99.90;;;;;;5078546;28;20234;-63
2022/01/05 03:20:24;;;;;;;0.40;0.40;;;8.10;99.90;;;;;;5078382;28;20713;-63
2022/01/05 03:22:51;;;;;;;0.30;0.30;;;8.20;99.90;;;;;;5073804;28;20238;-62
2022/01/05 03:25:19;;;;;;;0.30;0.30;;;8.20;99.90;;;;;;5073047;28;20242;-61
2022/01/05 03:27:48;;;;;;;0.27;0.27;;;8.20;99.90;;;;;;5073472;28;20249;-61
2022/01/05 03:30:20;;;;;;;0.40;0.40;;;8.20;99.90;;;;;;5073035;28;20314;-63
2022/01/05 03:33:07;;;;;;;0.30;0.30;;;8.20;99.90;;;;;;5072867;28;20287;-64
2022/01/05 03:35:36;;;;;;;0.30;0.30;;;8.20;99.90;;;;;;5073210;28;20249;-61
2022/01/05 03:38:04;;;;;;;0.22;0.22;;;8.20;99.90;;;;;;5073269;28;20298;-62
2022/01/05 03:40:32;;;;;;;0.43;0.43;;;8.10;99.90;;;;;;5072569;28;20310;-62
2022/01/05 03:42:59;;;;;;;0.30;0.30;;;8.10;99.90;;;;;;5072489;28;20748;-64
2022/01/05 03:45:27;;;;;;;0.30;0.30;;;8.20;99.90;;;;;;5073002;28;20290;-63
2022/01/05 03:47:54;;;;;;;0.50;0.50;;;8.20;99.90;;;;;;5072679;28;20217;-61
2022/01/05 03:50:21;;;;;;;0.27;0.27;;;8.20;99.90;;;;;;5072156;28;20251;-64
2022/01/05 03:52:48;;;;;;;0.20;0.20;;;8.20;99.90;;;;;;5072099;28;20243;-63
2022/01/05 03:55:15;;;;;;;0.30;0.30;;;8.20;99.90;;;;;;5072583;28;20199;-62
2022/01/05 03:57:42;;;;;;;0.40;0.40;;;8.20;99.90;;;;;;5072620;28;20207;-62
2022/01/05 04:00:10;;;;;;;0.33;0.33;;;8.20;99.90;;;;;;5072914;28;20234;-62
2022/01/05 04:02:38;;;;;;;0.30;0.30;;;8.20;99.90;;;;;;5072018;28;20266;-64
2022/01/05 04:05:06;;;;;;;0.40;0.40;;;8.10;99.90;;;;;;5072370;28;20294;-61
2022/01/05 04:07:33;;;;;;;0.25;0.25;;;8.10;99.90;;;;;;5073204;28;20272;-63
2022/01/05 04:09:59;;;;;;;0.40;0.40;;;7.90;99.90;;;;;;5073167;28;20306;-64
2022/01/05 04:12:26;;;;;;;0.50;0.50;;;7.70;99.90;;;;;;5072558;28;20970;-63
2022/01/05 04:14:53;;;;;;;0.50;0.50;;;7.60;99.90;;;;;;5073959;28;20207;-61
2022/01/05 04:17:21;;;;;;;0.50;0.50;;;7.30;99.90;;;;;;5075126;28;20646;-62
2022/01/05 04:19:49;;;;;;;0.50;0.50;;;7.20;99.90;;;;;;5074785;28;20257;-63
2022/01/05 04:22:16;;;;;;;0.52;0.52;;;7.20;99.90;;;;;;5077530;28;20238;-63
2022/01/05 04:24:43;;;;;;;0.77;0.77;;;7.00;99.90;;;;;;5090160;28;20297;-63
2022/01/05 04:27:10;;;;;;;0.50;0.50;;;6.90;99.90;;;;;;5085899;28;20218;-62
2022/01/05 04:29:37;;;;;;;0.47;0.47;;;7.00;99.90;;;;;;5082002;28;20672;-62
2022/01/05 04:32:05;;;;;;;0.40;0.40;;;6.70;99.90;;;;;;5082336;28;20246;-63
2022/01/05 04:34:32;;;;;;;0.50;0.50;;;6.50;99.90;;;;;;5080963;28;20184;-62
2022/01/05 04:37:01;;;;;;;0.40;0.40;;;6.50;99.90;;;;;;5088753;28;20719;-62
2022/01/05 04:39:28;;;;;;;0.50;0.50;;;6.30;99.90;;;;;;5084939;28;20310;-63
2022/01/05 04:41:54;;;;;;;0.50;0.50;;;6.30;99.90;;;;;;5087237;28;20219;-63
2022/01/05 04:44:21;;;;;;;0.40;0.40;;;6.20;99.90;;;;;;5082065;28;20272;-64
2022/01/05 04:46:48;;;;;;;0.30;0.30;;;6.10;99.90;;;;;;5073842;28;20719;-63
2022/01/05 04:49:15;;;;;;;0.37;0.37;;;6.10;99.90;;;;;;5071930;28;20702;-63
2022/01/05 04:51:42;;;;;;;0.30;0.30;;;6.10;99.90;;;;;;5071925;28;20218;-63
2022/01/05 04:54:10;;;;;;;1.30;0.60;;;6.10;99.90;;;;;;5073376;28;20235;-63
2022/01/05 04:56:37;;;;;;;0.40;0.40;;;6.00;99.90;;;;;;5071948;28;20290;-62
2022/01/05 04:59:04;;;;;;;0.30;0.30;;;6.00;99.90;;;;;;5072482;28;20229;-64
2022/01/05 05:01:31;;;;;;;0.40;0.40;;;5.90;99.90;;;;;;5070760;28;20314;-65
2022/01/05 05:03:58;;;;;;;0.50;0.50;;;5.90;99.90;;;;;;5071337;28;20622;-63
2022/01/05 05:06:25;;;;;;;0.50;0.50;;;5.90;99.90;;;;;;5070593;28;20679;-63
2022/01/05 05:08:52;;;;;;;0.40;0.40;;;5.90;99.90;;;;;;5072129;28;20227;-65
2022/01/05 05:11:20;;;;;;;0.30;0.30;;;5.90;99.90;;;;;;5071464;28;20207;-63
2022/01/05 05:13:47;;;;;;;0.40;0.40;;;6.00;99.90;;;;;;5071308;28;20207;-62
2022/01/05 05:16:14;;;;;;;0.32;0.32;;;5.90;99.90;;;;;;5071719;28;20231;-63
2022/01/05 05:18:41;;;;;;;0.30;0.30;;;5.90;99.90;;;;;;5071133;28;20704;-62
2022/01/05 05:21:07;;;;;;;0.50;0.50;;;5.90;99.90;;;;;;5071470;28;20589;-62
2022/01/05 05:23:34;;;;;;;0.37;0.37;;;5.90;99.90;;;;;;5071472;28;20203;-62
2022/01/05 05:26:01;;;;;;;0.50;0.50;;;5.90;99.90;;;;;;5071430;28;20204;-63
2022/01/05 05:28:29;;;;;;;0.40;0.40;;;6.00;99.90;;;;;;5070797;28;20238;-61
2022/01/05 05:30:56;;;;;;;0.40;0.40;;;5.90;99.90;;;;;;5073532;28;20184;-63
2022/01/05 05:33:23;;;;;;;0.40;0.40;;;5.90;99.90;;;;;;5072341;28;20268;-62
2022/01/05 05:35:50;;;;;;;0.50;0.50;;;5.80;99.90;;;;;;5071140;28;20243;-63
2022/01/05 05:38:17;;;;;;;0.43;0.43;;;5.80;99.90;;;;;;5072881;28;20257;-63
2022/01/05 05:40:45;;;;;;;0.40;0.40;;;5.70;99.90;;;;;;5075904;28;20660;-63
2022/01/05 05:43:13;;;;;;;0.40;0.40;;;5.70;99.90;;;;;;5075420;28;20245;-63
2022/01/05 05:45:41;;;;;;;0.53;0.53;;;5.60;99.90;;;;;;5074730;28;20211;-62
2022/01/05 05:48:08;;;;;;;0.20;0.20;;;5.50;99.90;;;;;;5074020;28;20286;-62
2022/01/05 05:50:35;;;;;;;0.40;0.40;;;5.40;99.90;;;;;;5080851;28;20245;-61
2022/01/05 05:53:02;;;;;;;0.40;0.40;;;5.40;99.90;;;;;;5086206;28;20263;-62
2022/01/05 05:55:29;;;;;;;0.50;0.50;;;5.40;99.90;;;;;;5086740;28;20203;-62
2022/01/05 05:57:56;;;;;;;0.50;0.50;;;5.30;99.90;;;;;;5083046;28;20263;-61
2022/01/05 06:00:23;;;;;;;0.60;0.60;;;5.30;99.90;;;;;;5076190;28;20223;-62
2022/01/05 06:02:52;;;;;;;0.50;0.50;;;5.30;99.90;;;;;;5074695;28;20298;-61
2022/01/05 06:05:19;;;;;;;0.50;0.50;;;5.40;99.90;;;;;;5075447;28;20294;-63
2022/01/05 06:07:46;;;;;;;0.83;0.83;;;5.30;99.90;;;;;;5075535;28;20199;-63
2022/01/05 06:10:13;;;;;;;0.80;0.80;;;5.30;99.90;;;;;;5075203;28;20313;-63
2022/01/05 06:12:40;;;;;;;0.63;0.63;;;5.30;99.90;;;;;;5073778;28;20213;-63
2022/01/05 06:15:07;;;;;;;0.63;0.60;;;5.40;99.90;;;;;;5075130;28;20264;-62
2022/01/05 06:17:34;;;;;;;0.60;0.60;;;5.30;99.90;;;;;;5074432;28;20205;-63
2022/01/05 06:20:04;;;;;;;0.70;0.70;;;5.30;99.90;;;;;;5075092;28;20229;-62
2022/01/05 06:22:31;;;;;;;0.80;0.80;;;5.30;99.90;;;;;;5073904;28;20208;-61
2022/01/05 06:24:58;;;;;;;0.80;0.80;;;5.20;99.90;;;;;;5074601;28;20203;-64
2022/01/05 06:27:25;;;;;;;0.80;0.80;;;5.10;99.90;;;;;;5075042;28;20205;-62
2022/01/05 06:29:52;;;;;;;0.80;0.80;;;5.00;99.90;;;;;;5074426;28;20258;-63
2022/01/05 06:32:19;;;;;;;0.67;0.67;;;5.00;99.90;;;;;;5074014;28;20231;-62
2022/01/05 06:34:46;;;;;;;0.70;0.70;;;5.00;99.90;;;;;;5076144;28;20246;-62
2022/01/05 06:37:17;;;;;;;0.70;0.70;;;4.90;99.90;;;;;;5075881;28;20239;-61
2022/01/05 06:39:44;;;;;;;0.73;0.73;;;4.90;99.90;;;;;;5074619;28;20223;-62
2022/01/05 06:42:11;;;;;;;0.80;0.80;;;4.90;99.90;;;;;;5073089;28;20794;-62
2022/01/05 06:44:38;;;;;;;0.75;0.75;;;4.90;99.90;;;;;;5073366;28;20754;-63
2022/01/05 06:47:05;;;;;;;0.80;0.80;;;5.00;99.90;;;;;;5072993;28;20683;-62
2022/01/05 06:49:32;;;;;;;1.03;1.03;;;4.90;99.90;;;;;;5072852;28;20302;-61
2022/01/05 06:51:59;;;;;;;0.90;0.90;;;4.90;99.90;;;;;;5072658;28;20706;-62
2022/01/05 06:54:29;;;;;;;0.90;0.90;;;4.90;99.90;;;;;;5073216;28;20199;-61
2022/01/05 06:56:56;;;;;;;1.00;1.00;;;4.90;99.90;;;;;;5072277;28;20203;-64
2022/01/05 06:59:23;;;;;;;0.90;0.90;;;4.80;99.90;;;;;;5072316;28;20742;-63
2022/01/05 07:01:50;;;;;;;1.30;1.20;;;4.80;99.90;;;;;;5072420;28;20258;-62
2022/01/05 07:04:17;;;;;;;0.80;0.80;;;4.90;99.90;;;;;;5072828;28;20210;-61
2022/01/05 07:06:44;;;;;;;0.97;0.97;;;4.80;99.90;;;;;;5072259;28;20210;-64
2022/01/05 07:09:11;;;;;;;0.98;0.98;;;4.90;99.90;;;;;;5072534;28;20255;-63
2022/01/05 07:11:40;;;;;;;0.90;0.90;;;4.80;99.90;;;;;;5072105;28;20206;-63
2022/01/05 07:14:07;;;;;;;0.98;0.98;;;4.80;99.90;;;;;;5073408;28;20211;-63
2022/01/05 07:16:34;;;;;;;0.97;0.97;;;4.80;99.90;;;;;;5072755;28;20211;-62
2022/01/05 07:19:01;;;;;;;0.90;0.90;;;4.80;99.90;;;;;;5072772;28;20223;-63
2022/01/05 07:21:29;;;;;;;0.97;0.97;;;4.90;99.90;;;;;;5072024;28;20230;-62
2022/01/05 07:23:56;;;;;;;1.07;1.07;;;4.90;99.90;;;;;;5073058;28;20214;-63
2022/01/05 07:26:24;;;;;;;0.80;0.80;;;4.90;99.90;;;;;;5072428;28;20684;-62
2022/01/05 07:28:52;;;;;;;1.20;0.90;;;4.90;99.90;;;;;;5072059;28;20328;-62
2022/01/05 07:31:19;;;;;;;0.90;0.90;;;4.90;99.90;;;;;;5072295;28;20202;-61
2022/01/05 07:33:46;;;;;;;0.93;0.93;;;4.90;99.90;;;;;;5071647;28;20234;-61
2022/01/05 07:36:13;;;;;;;0.98;0.90;;;4.90;99.90;;;;;;5086909;28;20218;-62
2022/01/05 07:38:40;;;;;;;1.00;1.00;;;5.00;99.90;;;;;;5088625;28;20219;-63
2022/01/05 07:41:07;;;;;;;0.80;0.80;;;5.00;99.90;;;;;;5088801;28;20219;-62
2022/01/05 07:43:34;;;;;;;1.10;1.10;;;5.10;99.90;;;;;;5089073;28;20257;-62
2022/01/05 07:46:02;;;;;;;0.97;0.97;;;5.00;99.90;;;;;;5088292;28;20210;-62
2022/01/05 07:48:29;;;;;;;1.10;1.00;;;5.00;99.90;;;;;;5073569;28;20280;-63
2022/01/05 07:50:56;;;;;;;1.30;1.20;;;5.00;99.90;;;;;;5072044;28;20721;-62
2022/01/05 07:53:23;;;;;;;0.80;0.80;;;4.90;99.90;;;;;;5071871;28;20654;-62
2022/01/05 07:55:50;;;;;;;1.40;1.30;;;4.90;99.90;;;;;;5071565;28;20646;-62
2022/01/05 07:58:19;;;;;;;1.07;1.07;;;4.90;99.90;;;;;;5071519;28;20695;-63
2022/01/05 08:00:45;;;;;;;1.05;1.05;;;4.80;99.90;;;;;;5070175;28;20231;-62
2022/01/05 08:03:14;;;;;;;1.30;1.20;;;4.80;99.90;;;;;;5069347;28;20242;-63
2022/01/05 08:05:40;;;;;;;1.20;1.10;;;4.80;99.90;;;;;;5067375;28;20286;-62
2022/01/05 08:08:07;;;;;;;1.23;1.13;;;4.70;99.90;;;;;;5070474;28;20290;-61
2022/01/05 08:10:34;;;;;;;1.48;1.30;;;4.70;99.90;;;;;;5070105;28;20227;-61
2022/01/05 08:13:01;;;;;;;0.85;0.85;;;4.60;99.90;;;;;;5068060;28;20203;-63
2022/01/05 08:15:28;;;;;;;1.00;1.00;;;4.60;99.90;;;;;;5075865;28;20294;-62
2022/01/05 08:17:55;;;;;;;1.50;1.40;;;4.60;99.90;;;;;;5068919;28;20663;-61
2022/01/05 08:20:23;;;;;;;2.17;1.33;;;4.60;99.90;;;;;;5070271;28;20310;-61
2022/01/05 08:22:50;;;;;;;1.35;1.25;;;4.50;99.90;;;;;;5071071;28;20245;-62
2022/01/05 08:25:20;;;;;;;1.30;1.20;;;4.50;99.90;;;;;;5071105;28;20199;-61
2022/01/05 08:27:48;;;;;;;1.10;1.10;;;4.60;99.90;;;;;;5070443;28;20288;-62
2022/01/05 08:30:16;;;;;;;1.35;1.25;;;4.60;99.90;;;;;;5070435;28;20325;-63
2022/01/05 08:32:43;;;;;;;1.30;1.20;;;4.50;99.90;;;;;;5069637;28;20259;-63
2022/01/05 08:35:11;;;;;;;1.08;1.02;;;4.50;99.90;;;;;;5073604;28;20238;-62
2022/01/05 08:37:43;;;;;;;1.10;1.10;;;4.40;99.90;;;;;;5076786;28;20211;-62
2022/01/05 08:40:12;;;;;;;1.03;1.03;;;4.40;99.90;;;;;;5074357;28;20231;-62
2022/01/05 08:42:39;;;;;;;1.50;1.40;;;4.50;99.90;;;;;;5069725;28;20300;-62
2022/01/05 08:45:07;;;;;;;1.30;1.20;;;4.50;99.90;;;;;;5069949;28;20261;-62
2022/01/05 08:47:34;;;;;;;1.30;1.20;;;4.40;99.90;;;;;;5068350;28;20207;-63
2022/01/05 08:50:01;;;;;;;1.50;1.40;;;4.40;99.90;;;;;;5066845;28;20334;-62
2022/01/05 08:52:28;;;;;;;1.30;1.20;;;4.30;99.90;;;;;;5066609;28;20191;-63
2022/01/05 08:54:57;;;;;;;1.47;1.37;;;4.40;99.90;;;;;;5074785;28;20199;-62
2022/01/05 08:57:24;;;;;;;0.90;0.90;;;4.40;99.90;;;;;;5077791;28;20206;-62
2022/01/05 08:59:52;;;;;;;1.27;1.17;;;4.50;99.90;;;;;;5074969;28;20223;-63
2022/01/05 09:02:19;;;;;;;1.17;1.10;;;4.50;99.90;;;;;;5075084;28;20241;-62
2022/01/05 09:04:48;;;;;;;1.10;1.10;;;4.50;99.90;;;;;;5069104;28;20203;-62
2022/01/05 09:07:16;;;;;;;1.30;1.20;;;4.50;99.90;;;;;;5068949;28;20741;-62
2022/01/05 09:09:43;;;;;;;1.00;1.00;;;4.60;99.90;;;;;;5069231;28;20684;-62
2022/01/05 09:12:12;;;;;;;1.10;1.07;;;4.60;99.90;;;;;;5068051;28;20781;-61
2022/01/05 09:14:39;;;;;;;1.40;1.30;;;4.60;99.90;;;;;;5074747;28;20203;-62
2022/01/05 09:17:07;;;;;;;1.50;1.40;;;4.60;99.90;;;;;;5072863;28;20226;-62
2022/01/05 09:19:36;;;;;;;1.70;1.60;;;4.80;99.90;;;;;;5074710;28;20254;-62
2022/01/05 09:22:04;;;;;;;1.27;1.17;;;4.80;99.90;;;;;;5073006;28;20324;-62
2022/01/05 09:24:32;;;;;;;1.60;1.50;;;4.80;99.90;;;;;;5073212;28;20566;-61
2022/01/05 09:27:03;;;;;;;1.50;1.40;;;4.80;99.90;;;;;;5072240;28;20290;-63
2022/01/05 09:29:31;;;;;;;1.20;1.10;;;4.70;99.90;;;;;;5072538;28;20730;-61
2022/01/05 09:32:03;;;;;;;1.20;1.20;;;4.90;99.90;;;;;;5072492;28;20666;-62
2022/01/05 09:34:30;;;;;;;1.10;1.10;;;5.10;99.90;;;;;;5073726;28;20278;-61
2022/01/05 09:37:00;;;;;;;1.40;1.30;;;5.10;99.90;;;;;;5073349;28;20267;-63
2022/01/05 09:42:12;;;;;;;1.13;1.13;;;5.00;99.90;;;;;;5071173;28;20300;-63
2022/01/05 09:44:45;;;;;;;1.20;1.10;;;5.00;99.90;;;;;;5071735;28;20203;-61
2022/01/05 09:47:31;;;;;;;1.40;1.30;;;5.10;99.90;;;;;;5072415;28;20417;-61
2022/01/05 09:50:01;;;;;;;1.63;1.53;;;5.10;99.90;;;;;;5072053;28;20222;-62
2022/01/05 09:52:28;;;;;;;1.10;1.10;;;5.10;99.90;;;;;;5071288;28;20203;-62
2022/01/05 09:54:56;;;;;;;1.27;1.03;;;5.20;99.90;;;;;;5072119;28;20663;-62
2022/01/05 09:57:24;;;;;;;1.43;1.30;;;5.20;99.90;;;;;;5071135;28;20249;-61
2022/01/05 09:59:53;;;;;;;1.40;1.30;;;5.20;99.90;;;;;;5071219;28;20302;-61
2022/01/05 10:02:20;;;;;;;1.50;1.40;;;5.20;99.90;;;;;;5073168;28;20302;-62
2022/01/05 10:04:47;;;;;;;1.40;1.30;;;5.20;99.90;;;;;;5073727;28;20227;-62
2022/01/05 10:07:15;;;;;;;1.60;1.50;;;5.20;99.90;;;;;;5072410;28;20199;-62
2022/01/05 10:09:43;;;;;;;1.57;1.47;;;5.20;99.90;;;;;;5072392;28;20786;-62
2022/01/05 10:12:13;;;;;;;2.13;1.37;;;5.10;99.90;;;;;;5073733;28;20614;-61
2022/01/05 10:14:41;;;;;;;1.98;1.50;;;5.10;99.90;;;;;;5074067;28;20231;-62
2022/01/05 10:17:11;;;;;;;1.40;1.30;;;5.10;99.90;;;;;;5074112;28;20211;-62
2022/01/05 10:19:38;;;;;;;1.97;1.73;;;5.00;99.90;;;;;;5074392;28;20230;-61
2022/01/05 10:22:26;;;;;;;1.50;1.40;;;4.90;99.90;;;;;;5073388;28;20322;-63
2022/01/05 10:24:56;;;;;;;1.65;1.40;;;4.90;99.90;;;;;;5070606;28;20200;-62
2022/01/05 10:27:24;;;;;;;1.50;1.40;;;4.90;99.90;;;;;;5072497;28;20222;-61
2022/01/05 10:29:53;;;;;;;1.60;1.50;;;4.90;99.90;;;;;;5066865;28;20314;-61
2022/01/05 10:32:22;;;;;;;1.13;1.13;;;5.00;99.90;;;;;;5070766;28;20275;-63
2022/01/05 10:35:10;;;;;;;1.33;1.30;;;5.00;99.90;;;;;;5071400;28;20199;-61
2022/01/05 10:37:41;;;;;;;1.93;1.73;;;5.10;99.90;;;;;;5072298;28;20256;-60
2022/01/05 10:40:11;;;;;;;1.40;1.30;;;5.00;99.90;;;;;;5070643;28;20303;-61
2022/01/05 10:42:39;;;;;;;1.67;1.57;;;5.00;99.90;;;;;;5069511;28;20225;-61
2022/01/05 10:45:08;;;;;;;1.67;1.40;;;5.00;99.90;;;;;;5070781;28;20223;-61
2022/01/05 10:47:37;;;;;;;1.30;1.20;;;5.00;99.90;;;;;;5070678;28;20207;-61
2022/01/05 10:50:05;;;;;;;1.03;1.03;;;5.10;99.90;;;;;;5074488;28;20318;-63
2022/01/05 10:52:37;;;;;;;1.40;1.30;;;5.20;99.90;;;;;;5080635;28;20278;-63
2022/01/05 10:55:13;;;;;;;1.17;1.07;;;5.20;99.90;;;;;;5072691;28;20264;-63
2022/01/05 10:57:54;;;;;;;1.50;1.40;;;5.20;99.90;;;;;;5074349;28;20206;-62
2022/01/05 11:00:32;;;;;;;1.20;1.10;;;5.30;99.90;;;;;;5089381;28;20246;-62
2022/01/05 11:03:00;;;;;;;1.20;1.20;;;5.20;99.90;;;;;;5086726;28;20287;-62
2022/01/05 11:05:27;;;;;;;1.60;1.47;;;5.20;99.90;;;;;;5087216;28;20207;-61
2022/01/05 11:08:07;;;;;;;1.50;1.40;;;5.20;99.90;;;;;;5071597;28;20203;-61
2022/01/05 11:10:34;;;;;;;1.70;1.50;;;5.20;99.90;;;;;;5069673;28;20233;-62
2022/01/05 11:13:01;;;;;;;1.30;1.20;;;5.00;99.90;;;;;;5069072;28;20222;-62
2022/01/05 11:15:31;;;;;;;1.40;1.30;;;5.00;99.90;;;;;;5070321;28;20617;-61
2022/01/05 11:18:17;;;;;;;1.30;1.30;;;5.00;99.90;;;;;;5066385;28;20203;-63
2022/01/05 11:20:51;;;;;;;1.50;1.40;;;5.00;99.90;;;;;;5071286;28;20195;-63
2022/01/05 11:23:19;;;;;;;1.47;1.30;;;5.10;99.90;;;;;;5067843;28;20239;-63
2022/01/05 11:25:47;;;;;;;1.25;1.20;;;5.10;99.90;;;;;;5069762;28;20302;-61
2022/01/05 11:28:15;;;;;;;1.50;1.40;;;5.20;99.90;;;;;;5070606;28;20203;-61
2022/01/05 11:30:44;;;;;;;1.53;1.43;;;5.30;99.90;;;;;;5070619;28;20246;-62
2022/01/05 11:33:12;;;;;;;1.52;1.42;;;5.50;99.90;;;;;;5070379;28;20191;-62
2022/01/05 11:35:41;;;;;;;1.63;1.50;;;5.50;99.90;;;;;;5071085;28;20199;-63
2022/01/05 11:38:08;;;;;;;1.40;1.30;;;5.60;99.90;;;;;;5069516;28;20199;-61
2022/01/05 11:40:39;;;;;;;1.25;1.25;;;5.40;99.90;;;;;;5069966;28;20223;-64
2022/01/05 11:43:08;;;;;;;1.40;1.20;;;5.30;99.90;;;;;;5072539;28;20211;-62
2022/01/05 11:45:44;;;;;;;1.70;1.30;;;5.40;99.90;;;;;;5071465;28;20674;-62
2022/01/05 11:48:17;;;;;;;1.40;1.30;;;5.50;99.90;;;;;;5073440;28;20268;-63
2022/01/05 11:50:48;;;;;;;1.38;1.27;;;5.60;99.90;;;;;;5070874;28;20273;-61
2022/01/05 11:53:17;;;;;;;1.00;1.00;;;5.60;99.90;;;;;;5071115;28;20200;-62
2022/01/05 11:56:04;;;;;;;1.47;1.30;;;5.70;99.90;;;;;;5073533;28;20256;-63
2022/01/05 11:58:33;;;;;;;1.30;1.20;;;5.70;99.90;;;;;;5058425;28;20214;-62
2022/01/05 12:01:23;;;;;;;1.50;1.40;;;5.70;99.90;;;;;;5068846;28;20217;-63
2022/01/05 12:04:09;;;;;;;1.50;1.40;;;5.70;99.90;;;;;;5070955;28;20283;-62
2022/01/05 12:07:04;;;;;;;1.10;1.00;;;5.70;99.90;;;;;;5070913;28;20196;-62
2022/01/05 12:09:33;;;;;;;1.38;1.27;;;5.60;99.90;;;;;;5070458;28;20306;-61
2022/01/05 12:12:20;;;;;;;1.57;1.47;;;5.70;99.90;;;;;;5071286;28;20238;-65
2022/01/05 12:14:49;;;;;;;1.20;1.20;;;5.60;99.90;;;;;;5075354;28;20260;-62
2022/01/05 12:17:18;;;;;;;1.23;1.23;;;5.70;99.90;;;;;;5076090;28;20200;-62
2022/01/05 12:20:09;;;;;;;1.40;1.20;;;5.60;99.90;;;;;;5069939;28;20223;-61
2022/01/05 12:22:37;;;;;;;1.40;1.30;;;5.60;99.90;;;;;;5069558;28;20314;-61
2022/01/05 12:25:20;;;;;;;1.17;1.17;;;5.60;99.90;;;;;;5070215;28;20235;-60
2022/01/05 12:28:02;;;;;;;1.27;1.20;;;5.50;99.90;;;;;;5071205;28;20203;-62
2022/01/05 12:30:36;;;;;;;1.20;1.10;;;5.50;99.90;;;;;;5069714;28;20262;-62
2022/01/05 12:33:06;;;;;;;1.27;1.20;;;5.60;99.90;;;;;;5070968;28;20222;-62
2022/01/05 12:35:46;;;;;;;1.30;1.20;;;5.60;99.90;;;;;;5070619;28;20207;-63
2022/01/05 12:38:31;;;;;;;1.30;1.20;;;5.70;99.90;;;;;;5071081;28;20207;-63
2022/01/05 12:40:59;;;;;;;1.43;1.33;;;5.60;99.90;;;;;;5069608;28;20205;-63
2022/01/05 12:43:34;;;;;;;1.52;1.42;;;5.60;99.90;;;;;;5093751;22;20250;-62
2022/01/05 12:46:08;;;;;;;1.40;1.30;;;5.50;99.90;;;;;;5074915;28;20203;-64
2022/01/05 12:49:00;;;;;;;1.40;1.30;;;5.50;99.90;;;;;;5078662;28;20199;-62
2022/01/05 12:51:52;;;;;;;1.63;1.40;;;5.60;99.90;;;;;;5076757;28;20252;-62
2022/01/05 12:54:23;;;;;;;1.20;1.10;;;5.60;99.90;;;;;;5042388;28;20196;-63
2022/01/05 12:56:55;;;;;;;1.43;1.33;;;5.70;99.90;;;;;;5075805;28;20203;-61
2022/01/05 12:59:28;;;;;;;1.37;1.27;;;5.80;99.90;;;;;;5073960;28;20234;-61
2022/01/05 13:01:58;;;;;;;1.30;1.30;;;5.90;99.90;;;;;;5074911;28;20741;-62
2022/01/05 13:04:25;;;;;;;1.10;1.00;;;6.00;99.90;;;;;;5076339;28;20769;-60
2022/01/05 13:06:55;;;;;;;1.10;1.10;;;6.00;99.90;;;;;;5073962;28;20207;-60
2022/01/05 13:09:30;;;;;;;1.33;1.23;;;6.10;99.90;;;;;;5071479;28;20289;-61
2022/01/05 13:12:00;;;;;;;1.20;1.10;;;6.20;99.90;;;;;;5074922;28;20758;-62